createdAt,value
2022-07-27T00:01:18.269Z,18.08
2022-07-27T00:04:21.063Z,18.19
2022-07-27T00:07:23.874Z,18.15
2022-07-27T00:10:28.024Z,18.03
2022-07-27T00:13:31.029Z,17.88
2022-07-27T00:16:33.894Z,17.79
2022-07-27T00:19:36.597Z,17.77
2022-07-27T00:22:39.368Z,17.73
2022-07-27T00:25:43.370Z,17.62
2022-07-27T00:28:46.100Z,17.61
2022-07-27T00:31:48.978Z,17.59
2022-07-27T00:34:51.754Z,17.55
2022-07-27T00:37:54.514Z,17.53
2022-07-27T00:40:58.682Z,17.49
2022-07-27T00:44:01.738Z,17.46
2022-07-27T00:47:04.639Z,17.30
2022-07-27T00:50:08.738Z,17.26
2022-07-27T00:53:11.911Z,17.22
2022-07-27T00:56:16.997Z,17.15
2022-07-27T00:59:21.387Z,17.09
2022-07-27T01:02:24.311Z,16.98
2022-07-27T01:05:36.637Z,16.92
2022-07-27T01:08:42.434Z,16.88
2022-07-27T01:11:47.374Z,16.85
2022-07-27T01:14:51.453Z,16.74
2022-07-27T01:17:54.260Z,16.71
2022-07-27T01:20:57.800Z,16.64
2022-07-27T01:24:01.992Z,16.70
2022-07-27T01:27:06.092Z,16.57
2022-07-27T01:30:24.336Z,16.47
2022-07-27T01:33:27.235Z,16.47
2022-07-27T01:36:30.667Z,16.42
2022-07-27T01:39:35.335Z,16.33
2022-07-27T01:42:38.091Z,16.31
2022-07-27T01:45:41.130Z,16.27
2022-07-27T01:48:44.244Z,16.26
2022-07-27T01:51:47.061Z,16.23
2022-07-27T01:54:51.355Z,16.02
2022-07-27T01:57:53.996Z,15.96
2022-07-27T02:00:56.810Z,15.96
2022-07-27T02:03:59.584Z,15.89
2022-07-27T02:07:02.272Z,15.90
2022-07-27T02:10:07.358Z,15.88
2022-07-27T02:13:15.320Z,15.79
2022-07-27T02:16:25.974Z,15.74
2022-07-27T02:19:29.205Z,15.71
2022-07-27T02:22:31.869Z,15.56
2022-07-27T02:25:38.001Z,15.46
2022-07-27T02:28:40.728Z,15.53
2022-07-27T02:31:43.488Z,15.44
2022-07-27T02:34:46.181Z,15.43
2022-07-27T02:37:49.220Z,15.39
2022-07-27T02:40:53.402Z,15.27
2022-07-27T02:43:56.073Z,15.27
2022-07-27T02:46:58.904Z,15.14
2022-07-27T02:50:02.172Z,15.12
2022-07-27T02:53:04.970Z,15.15
2022-07-27T02:56:09.104Z,15.14
2022-07-27T02:59:12.211Z,15.14
2022-07-27T03:02:15.352Z,15.17
2022-07-27T03:05:18.481Z,15.11
2022-07-27T03:08:21.302Z,15.03
2022-07-27T03:11:25.320Z,15.03
2022-07-27T03:14:29.538Z,15.00
2022-07-27T03:17:32.851Z,14.97
2022-07-27T03:20:35.683Z,14.92
2022-07-27T03:23:38.599Z,14.87
2022-07-27T03:26:46.673Z,14.79
2022-07-27T03:29:49.480Z,14.82
2022-07-27T03:32:52.144Z,14.86
2022-07-27T03:35:55.509Z,14.79
2022-07-27T03:39:01.801Z,14.75
2022-07-27T03:42:08.612Z,14.66
2022-07-27T03:45:11.785Z,14.71
2022-07-27T03:48:14.491Z,14.73
2022-07-27T03:51:17.116Z,14.74
2022-07-27T03:54:19.788Z,14.71
2022-07-27T03:57:23.971Z,14.69
2022-07-27T04:00:27.112Z,14.70
2022-07-27T04:03:29.752Z,14.76
2022-07-27T04:06:32.522Z,14.71
2022-07-27T04:09:36.022Z,14.76
2022-07-27T04:12:41.505Z,14.86
2022-07-27T04:15:44.230Z,14.74
2022-07-27T04:18:46.992Z,14.81
2022-07-27T04:21:49.754Z,14.91
2022-07-27T04:24:52.466Z,15.13
2022-07-27T04:27:56.565Z,15.16
2022-07-27T04:30:59.304Z,15.17
2022-07-27T04:34:12.756Z,15.19
2022-07-27T04:37:30.541Z,15.25
2022-07-27T04:40:34.398Z,15.22
2022-07-27T04:43:38.667Z,15.91
2022-07-27T04:46:41.428Z,16.70
2022-07-27T04:49:44.330Z,17.34
2022-07-27T04:52:46.998Z,17.80
2022-07-27T04:55:49.765Z,18.10
2022-07-27T04:58:54.158Z,18.22
2022-07-27T05:01:56.803Z,18.48
2022-07-27T05:05:01.171Z,19.11
2022-07-27T05:08:04.248Z,19.79
2022-07-27T05:11:06.897Z,19.13
2022-07-27T05:14:10.890Z,19.16
2022-07-27T05:17:13.713Z,19.62
2022-07-27T05:20:16.748Z,18.96
2022-07-27T05:23:19.435Z,18.11
2022-07-27T05:26:23.268Z,17.64
2022-07-27T05:29:27.218Z,17.67
2022-07-27T05:32:30.192Z,18.57
2022-07-27T05:35:33.038Z,19.41
2022-07-27T05:38:39.475Z,19.98
2022-07-27T05:41:42.361Z,19.48
2022-07-27T05:44:46.326Z,20.02
2022-07-27T05:47:49.099Z,20.54
2022-07-27T05:50:53.764Z,21.06
2022-07-27T05:53:56.534Z,21.34
2022-07-27T05:56:59.303Z,21.70
2022-07-27T06:00:03.619Z,21.39
2022-07-27T06:03:06.509Z,22.16
2022-07-27T06:06:26.830Z,21.98
2022-07-27T06:09:29.749Z,21.85
2022-07-27T06:12:38.392Z,21.87
2022-07-27T06:15:42.415Z,22.52
2022-07-27T06:18:45.135Z,22.59
2022-07-27T06:21:53.137Z,22.51
2022-07-27T06:24:56.552Z,23.15
2022-07-27T06:27:59.137Z,23.60
2022-07-27T06:31:03.369Z,23.99
2022-07-27T06:34:11.851Z,24.21
2022-07-27T06:37:14.811Z,24.68
2022-07-27T06:40:17.627Z,24.50
2022-07-27T06:43:21.340Z,24.40
2022-07-27T06:46:25.513Z,24.24
2022-07-27T06:49:28.254Z,24.40
2022-07-27T06:52:31.092Z,24.81
2022-07-27T06:55:34.267Z,25.43
2022-07-27T06:58:38.665Z,25.16
2022-07-27T07:01:48.500Z,24.15
2022-07-27T07:04:51.522Z,22.74
2022-07-27T07:07:55.509Z,21.83
2022-07-27T07:10:58.223Z,21.43
2022-07-27T07:14:00.983Z,20.81
2022-07-27T07:17:05.154Z,21.36
2022-07-27T07:20:09.760Z,21.82
2022-07-27T07:23:12.778Z,22.02
2022-07-27T07:26:15.404Z,22.11
2022-07-27T07:29:18.763Z,22.20
2022-07-27T07:32:27.776Z,22.42
2022-07-27T07:35:34.614Z,22.54
2022-07-27T07:38:37.501Z,21.85
2022-07-27T07:41:40.273Z,21.70
2022-07-27T07:44:43.413Z,21.77
2022-07-27T07:47:47.439Z,21.27
2022-07-27T07:50:53.142Z,21.16
2022-07-27T07:53:56.547Z,21.40
2022-07-27T07:56:59.201Z,20.91
2022-07-27T08:00:01.961Z,20.95
2022-07-27T08:03:06.045Z,21.10
2022-07-27T08:06:08.831Z,21.06
2022-07-27T08:09:13.147Z,21.11
2022-07-27T08:12:16.200Z,21.53
2022-07-27T08:15:19.603Z,21.83
2022-07-27T08:18:23.592Z,21.40
2022-07-27T08:21:26.412Z,21.86
2022-07-27T08:24:33.459Z,21.60
2022-07-27T08:27:40.259Z,21.12
2022-07-27T08:30:43.574Z,21.13
2022-07-27T08:33:48.085Z,21.39
2022-07-27T08:36:50.869Z,21.88
2022-07-27T08:40:38.197Z,22.40
2022-07-27T08:43:24.343Z,21.99
2022-07-27T08:46:28.459Z,22.42
2022-07-27T08:49:43.202Z,22.06
2022-07-27T08:52:47.017Z,21.61
2022-07-27T08:55:49.868Z,21.36
2022-07-27T08:58:52.734Z,21.68
2022-07-27T09:01:55.462Z,22.07
2022-07-27T09:05:00.005Z,22.02
2022-07-27T09:08:11.081Z,21.93
2022-07-27T09:11:15.565Z,21.84
2022-07-27T09:14:18.302Z,21.61
2022-07-27T09:21:07.714Z,21.70
2022-07-27T09:24:29.669Z,21.91
2022-07-27T09:27:36.580Z,22.61
2022-07-27T09:30:43.331Z,23.78
2022-07-27T09:33:47.625Z,23.96
2022-07-27T09:36:54.037Z,23.18
2022-07-27T09:40:12.432Z,22.68
2022-07-27T09:46:41.412Z,22.07
2022-07-27T09:49:44.220Z,22.31
2022-07-27T09:52:48.534Z,22.51
2022-07-27T09:56:00.789Z,21.94
2022-07-27T09:59:04.833Z,22.15
2022-07-27T10:02:07.792Z,22.04
2022-07-27T10:05:11.344Z,22.42
2022-07-27T10:08:17.233Z,22.78
2022-07-27T10:11:21.657Z,22.14
2022-07-27T10:14:25.562Z,21.92
2022-07-27T10:17:28.610Z,21.75
2022-07-27T10:20:34.329Z,22.16
2022-07-27T10:23:39.223Z,22.70
2022-07-27T10:26:43.582Z,24.11
2022-07-27T10:29:48.458Z,24.24
2022-07-27T10:32:51.137Z,23.51
2022-07-27T10:35:54.000Z,23.21
2022-07-27T10:38:59.481Z,23.21
2022-07-27T10:42:35.333Z,22.83
2022-07-27T10:45:55.277Z,22.28
2022-07-27T10:49:19.342Z,22.29
2022-07-27T10:52:42.970Z,22.46
2022-07-27T10:55:48.099Z,22.43
2022-07-27T10:58:52.457Z,22.66
2022-07-27T11:01:59.299Z,24.58
2022-07-27T11:05:05.578Z,24.15
2022-07-27T11:08:36.485Z,23.10
2022-07-27T11:11:34.511Z,22.90
2022-07-27T11:14:46.137Z,22.79
2022-07-27T11:17:58.422Z,22.62
2022-07-27T11:21:25.795Z,22.86
2022-07-27T11:24:29.046Z,23.20
2022-07-27T11:27:33.066Z,23.83
2022-07-27T11:30:35.973Z,23.94
2022-07-27T11:33:49.728Z,23.77
2022-07-27T11:36:52.493Z,23.29
2022-07-27T11:40:04.937Z,23.48
2022-07-27T11:43:38.298Z,23.82
2022-07-27T11:46:44.406Z,23.70
2022-07-27T11:49:47.385Z,23.99
2022-07-27T11:53:01.289Z,23.66
2022-07-27T11:56:04.733Z,23.84
2022-07-27T11:59:12.247Z,24.01
2022-07-27T12:02:17.817Z,23.92
2022-07-27T12:05:20.958Z,24.26
2022-07-27T12:08:24.380Z,24.25
2022-07-27T12:11:34.193Z,24.90
2022-07-27T12:14:40.185Z,24.97
2022-07-27T12:17:43.740Z,25.78
2022-07-27T12:20:48.737Z,25.54
2022-07-27T12:23:52.820Z,24.37
2022-07-27T12:27:07.029Z,24.29
2022-07-27T12:30:13.175Z,24.45
2022-07-27T12:33:28.425Z,24.06
2022-07-27T12:36:31.687Z,24.28
2022-07-27T12:39:34.352Z,24.44
2022-07-27T12:42:37.556Z,24.03
2022-07-27T12:45:41.727Z,23.76
2022-07-27T12:48:44.790Z,23.35
2022-07-27T12:51:47.515Z,23.46
2022-07-27T12:54:50.302Z,23.53
2022-07-27T12:57:56.496Z,23.61
2022-07-27T13:01:00.992Z,23.39
2022-07-27T13:04:03.806Z,23.46
2022-07-27T13:07:06.450Z,23.42
2022-07-27T13:10:11.111Z,23.15
2022-07-27T13:13:13.869Z,23.35
2022-07-27T13:16:17.948Z,23.79
2022-07-27T13:19:20.712Z,23.83
2022-07-27T13:22:23.571Z,24.39
2022-07-27T13:25:26.495Z,24.20
2022-07-27T13:28:29.130Z,23.71
2022-07-27T13:31:33.378Z,23.95
2022-07-27T13:34:36.183Z,23.65
2022-07-27T13:37:39.432Z,23.32
2022-07-27T13:40:44.034Z,23.36
2022-07-27T13:43:46.669Z,23.43
2022-07-27T13:46:51.477Z,23.86
2022-07-27T13:49:54.121Z,23.48
2022-07-27T13:52:56.909Z,23.84
2022-07-27T13:56:01.379Z,23.54
2022-07-27T13:59:05.896Z,23.51
2022-07-27T14:02:10.106Z,23.54
2022-07-27T14:05:15.973Z,23.98
2022-07-27T14:08:22.004Z,24.08
2022-07-27T14:11:24.672Z,24.29
2022-07-27T14:14:27.460Z,24.20
2022-07-27T14:17:31.501Z,24.15
2022-07-27T14:20:34.530Z,23.84
2022-07-27T14:23:37.887Z,23.92
2022-07-27T14:26:40.892Z,23.89
2022-07-27T14:29:43.547Z,24.10
2022-07-27T14:32:47.711Z,24.04
2022-07-27T14:35:50.476Z,23.81
2022-07-27T14:38:53.507Z,24.00
2022-07-27T14:41:56.413Z,24.68
2022-07-27T14:44:59.307Z,24.38
2022-07-27T14:48:03.457Z,24.03
2022-07-27T14:51:06.293Z,23.93
2022-07-27T14:54:09.266Z,24.01
2022-07-27T14:57:12.178Z,23.34
2022-07-27T15:00:16.360Z,23.42
2022-07-27T15:03:21.337Z,23.39
2022-07-27T15:06:24.241Z,23.37
2022-07-27T15:09:30.326Z,23.47
2022-07-27T15:12:37.733Z,23.37
2022-07-27T15:15:40.716Z,23.58
2022-07-27T15:18:45.729Z,23.46
2022-07-27T15:21:48.802Z,23.49
2022-07-27T15:24:52.552Z,23.72
2022-07-27T15:27:55.298Z,23.66
2022-07-27T15:30:58.188Z,23.91
2022-07-27T15:34:02.324Z,24.20
2022-07-27T15:37:07.437Z,24.25
2022-07-27T15:40:29.083Z,23.87
2022-07-27T15:43:32.038Z,23.57
2022-07-27T15:46:35.166Z,23.53
2022-07-27T15:49:39.410Z,23.58
2022-07-27T15:52:42.107Z,23.62
2022-07-27T15:55:45.767Z,23.56
2022-07-27T15:58:48.382Z,23.68
2022-07-27T16:01:51.231Z,23.43
2022-07-27T16:04:57.805Z,23.48
2022-07-27T16:08:00.438Z,23.48
2022-07-27T16:11:03.179Z,23.51
2022-07-27T16:14:05.814Z,23.37
2022-07-27T16:17:08.633Z,22.93
2022-07-27T16:20:13.384Z,23.10
2022-07-27T16:23:18.796Z,23.13
2022-07-27T16:26:24.845Z,23.01
2022-07-27T16:29:28.242Z,23.16
2022-07-27T16:32:31.028Z,22.93
2022-07-27T16:35:35.042Z,22.92
2022-07-27T16:38:38.278Z,22.98
2022-07-27T16:41:47.977Z,22.67
2022-07-27T16:44:50.825Z,23.04
2022-07-27T16:47:53.488Z,22.83
2022-07-27T16:50:57.799Z,22.94
2022-07-27T16:54:00.546Z,22.80
2022-07-27T16:57:03.213Z,22.72
2022-07-27T17:00:11.415Z,22.57
2022-07-27T17:03:14.097Z,22.67
2022-07-27T17:06:19.288Z,22.77
2022-07-27T17:09:21.917Z,22.65
2022-07-27T17:12:24.777Z,22.63
2022-07-27T17:15:29.001Z,22.14
2022-07-27T17:18:38.922Z,22.29
2022-07-27T17:21:43.676Z,22.33
2022-07-27T17:24:46.320Z,22.36
2022-07-27T17:27:49.303Z,22.07
2022-07-27T17:30:52.143Z,22.20
2022-07-27T17:33:55.685Z,22.17
2022-07-27T17:36:59.841Z,21.99
2022-07-27T17:40:02.829Z,21.85
2022-07-27T17:43:05.845Z,22.06
2022-07-27T17:46:09.827Z,21.75
2022-07-27T17:49:12.975Z,21.74
2022-07-27T17:52:17.169Z,21.72
2022-07-27T17:55:19.844Z,21.71
2022-07-27T17:58:27.944Z,21.61
2022-07-27T18:01:48.016Z,21.50
2022-07-27T18:04:51.091Z,21.31
2022-07-27T18:07:55.289Z,21.23
2022-07-27T18:10:58.044Z,21.19
2022-07-27T18:14:00.920Z,21.08
2022-07-27T18:17:03.738Z,21.03
2022-07-27T18:20:08.700Z,21.04
2022-07-27T18:23:14.262Z,21.04
2022-07-27T18:26:16.966Z,21.01
2022-07-27T18:29:19.756Z,20.86
2022-07-27T18:32:22.565Z,20.86
2022-07-27T18:35:25.574Z,20.80
2022-07-27T18:38:29.723Z,20.79
2022-07-27T18:41:32.357Z,20.80
2022-07-27T18:44:46.028Z,20.84
2022-07-27T18:47:49.334Z,20.81
2022-07-27T18:50:53.639Z,20.82
2022-07-27T18:53:57.583Z,20.82
2022-07-27T18:57:00.486Z,20.72
2022-07-27T19:00:03.342Z,20.63
2022-07-27T19:03:06.203Z,20.50
2022-07-27T19:06:16.718Z,20.40
2022-07-27T19:09:22.631Z,20.34
2022-07-27T19:12:25.305Z,20.17
2022-07-27T19:15:28.072Z,20.07
2022-07-27T19:18:30.721Z,19.96
2022-07-27T19:21:33.610Z,19.85
2022-07-27T19:24:37.738Z,19.76
2022-07-27T19:27:40.691Z,19.65
2022-07-27T19:30:43.582Z,19.55
2022-07-27T19:33:46.351Z,19.47
2022-07-27T19:36:49.153Z,19.36
2022-07-27T19:39:57.079Z,19.27
2022-07-27T19:43:05.780Z,19.17
2022-07-27T19:46:08.770Z,19.07
2022-07-27T19:49:11.720Z,19.02
2022-07-27T19:52:14.932Z,18.96
2022-07-27T19:55:18.927Z,18.94
2022-07-27T19:58:21.797Z,18.91
2022-07-27T20:01:25.604Z,18.83
2022-07-27T20:04:28.366Z,18.83
2022-07-27T20:07:31.133Z,18.78
2022-07-27T20:10:35.102Z,18.75
2022-07-27T20:13:37.989Z,18.67
2022-07-27T20:16:41.546Z,18.56
2022-07-27T20:19:44.573Z,18.53
2022-07-27T20:22:47.305Z,18.49
2022-07-27T20:25:51.415Z,18.50
2022-07-27T20:28:54.076Z,18.45
2022-07-27T20:31:57.195Z,18.39
2022-07-27T20:35:01.305Z,18.32
2022-07-27T20:38:04.032Z,18.29
2022-07-27T20:41:08.132Z,18.24
2022-07-27T20:44:10.811Z,18.19
2022-07-27T20:47:14.732Z,18.16
2022-07-27T20:50:17.513Z,18.10
2022-07-27T20:53:20.525Z,18.02
2022-07-27T20:56:24.703Z,17.93
2022-07-27T20:59:27.385Z,17.89
2022-07-27T21:02:30.250Z,17.83
2022-07-27T21:05:34.402Z,17.74
2022-07-27T21:08:37.215Z,17.61
2022-07-27T21:11:41.180Z,17.52
2022-07-27T21:14:44.221Z,17.41
2022-07-27T21:17:46.958Z,17.30
2022-07-27T21:20:49.586Z,17.25
2022-07-27T21:24:09.963Z,17.17
2022-07-27T21:27:14.192Z,17.15
2022-07-27T21:30:16.980Z,17.04
2022-07-27T21:33:19.751Z,16.96
2022-07-27T21:36:22.624Z,16.85
2022-07-27T21:39:26.109Z,16.81
2022-07-27T21:42:33.027Z,16.70
2022-07-27T21:45:35.864Z,16.64
2022-07-27T21:48:38.734Z,16.53
2022-07-27T21:51:41.599Z,16.47
2022-07-27T21:54:44.317Z,16.47
2022-07-27T21:57:48.540Z,16.45
2022-07-27T22:00:51.397Z,16.44
2022-07-27T22:03:54.554Z,16.34
2022-07-27T22:06:57.371Z,16.28
2022-07-27T22:10:00.000Z,16.21
2022-07-27T22:13:04.228Z,16.10
2022-07-27T22:16:07.460Z,16.02
2022-07-27T22:19:10.369Z,16.00
2022-07-27T22:22:13.619Z,15.92
2022-07-27T22:25:16.728Z,15.87
2022-07-27T22:28:20.835Z,15.83
2022-07-27T22:31:28.736Z,15.75
2022-07-27T22:34:31.649Z,15.65
2022-07-27T22:37:34.307Z,15.61
2022-07-27T22:40:37.096Z,15.54
2022-07-27T22:43:41.122Z,15.45
2022-07-27T22:46:43.884Z,15.42
2022-07-27T22:49:46.683Z,15.38
2022-07-27T22:52:49.380Z,15.30
2022-07-27T22:55:52.195Z,15.25
2022-07-27T22:58:56.241Z,15.26
2022-07-27T23:01:59.313Z,15.25
2022-07-27T23:05:02.018Z,15.21
2022-07-27T23:08:05.019Z,15.14
2022-07-27T23:11:08.107Z,15.13
2022-07-27T23:14:12.600Z,15.08
2022-07-27T23:17:15.619Z,15.02
2022-07-27T23:20:18.493Z,14.93
2022-07-27T23:23:21.557Z,14.79
2022-07-27T23:26:26.130Z,14.70
2022-07-27T23:29:30.488Z,14.69
2022-07-27T23:32:33.253Z,14.67
2022-07-27T23:35:35.944Z,14.64
2022-07-27T23:38:38.683Z,14.61
2022-07-27T23:41:42.688Z,14.58
2022-07-27T23:44:48.415Z,14.58
2022-07-27T23:47:53.206Z,14.56
2022-07-27T23:50:56.117Z,14.62
2022-07-27T23:53:58.938Z,14.62
2022-07-27T23:57:01.642Z,14.61
